MSC Opera — H3FV — position and weather

sailwx.info

Track history (hours):
 
Tides and Currents Weather Stations Pressure Air Temp Water Temp Dewpoint Dewpoint Depression Visibility Wind Speed Wind Dir Waves Ship Positions

MSC Opera

Operator: Mediterranean Shipping Company

Last reported at 2018-Apr-26 19:00 UTC. Time now 2018-Apr-26 19:10 UTC.
Position N 38°54' E 015°18'.

Length 275 m; draft 6.8 m.

Type: Ship. MMSI: 357627000.

Date/timePositionNaut miles runAvg speedWind from/ knotsBaromVisibWave heightAir tempDewpointWater temp
2018-Apr-26 19:00N 38°54' E 015°18'817.0
2018-Apr-26 18:30N 38°46' E 015°23'1017.4
2018-Apr-26 17:56N 38°37' E 015°29'717.2
2018-Apr-26 17:30N 38°31' E 015°33'817.0
2018-Apr-26 17:01N 38°23' E 015°38'913.9
2018-Apr-26 16:23N 38°15' E 015°39'513.1
2018-Apr-26 16:00N 38°12' E 015°34'1 0.9
2018-Apr-26 15:25N 38°12' E 015°33'0 0.0
2018-Apr-26 14:55N 38°12' E 015°33'0 0.0
2018-Apr-26 14:19N 38°12' E 015°33'0 0.0
2018-Apr-26 13:55N 38°12' E 015°33'0 0.0
2018-Apr-26 13:25N 38°12' E 015°33'0 0.0
2018-Apr-26 13:00N 38°12' E 015°33'0 0.0
2018-Apr-26 12:24N 38°12' E 015°33'0 0.0
2018-Apr-26 12:00N 38°12' E 015°33'0 0.0
2018-Apr-26 11:24N 38°12' E 015°33'0 0.0
2018-Apr-26 10:59N 38°12' E 015°33'0 0.0
2018-Apr-26 10:29N 38°12' E 015°33'0 0.0
2018-Apr-26 09:59N 38°12' E 015°33'0 0.0
2018-Apr-26 09:29N 38°12' E 015°33'0 0.0
2018-Apr-26 08:53N 38°12' E 015°33'0 0.0
2018-Apr-26 08:28N 38°12' E 015°33'0 0.0
2018-Apr-26 07:58N 38°12' E 015°33'0 0.0
2018-Apr-26 07:28N 38°12' E 015°33'0 0.0
2018-Apr-26 06:52N 38°12' E 015°33'0 0.0
2018-Apr-26 06:28N 38°12' E 015°33'0 0.0
2018-Apr-26 05:58N 38°12' E 015°33'1 2.2
2018-Apr-26 05:31N 38°12' E 015°34'5 9.1
2018-Apr-26 05:00N 38°08' E 015°36'610.4
2018-Apr-26 04:27N 38°02' E 015°35'512.0
2018-Apr-26 04:00N 37°57' E 015°35'612.1
2018-Apr-26 03:29N 37°51' E 015°34'812.3
2018-Apr-26 02:49N 37°43' E 015°33'412.3
2018-Apr-26 02:29N 37°38' E 015°33'6413.1
2018-Apr-25 21:37N 36°36' E 015°17'1013.7
2018-Apr-25 20:55N 36°28' E 015°09'613.6
2018-Apr-25 20:28N 36°24' E 015°05'913.8
2018-Apr-25 19:48N 36°17' E 014°57'413.9
2018-Apr-25 19:30N 36°13' E 014°54'713.8
2018-Apr-25 19:01N 36°09' E 014°48'813.8
2018-Apr-25 18:25N 36°03' E 014°41'613.9
2018-Apr-25 18:00N 35°58' E 014°36'7 1.0
2018-Apr-25 11:05N 35°53' E 014°31'0 0.6
2018-Apr-25 10:58N 35°53' E 014°31'2 4.6
2018-Apr-25 10:30N 35°55' E 014°32'5 9.2
2018-Apr-25 10:00N 35°59' E 014°31'612.7
2018-Apr-25 09:30N 36°04' E 014°25'815.2
2018-Apr-25 09:00N 36°09' E 014°18'816.4
2018-Apr-25 08:30N 36°15' E 014°11'816.1
2018-Apr-25 08:00N 36°21' E 014°04'816.4
2018-Apr-25 07:30N 36°26' E 013°57'816.6
2018-Apr-25 07:00N 36°32' E 013°50'816.4
2018-Apr-25 06:29N 36°38' E 013°42'816.1
2018-Apr-25 06:00N 36°44' E 013°35'816.4
2018-Apr-25 05:30N 36°49' E 013°28'816.3
2018-Apr-25 05:00N 36°55' E 013°21'816.4
2018-Apr-25 04:30N 37°01' E 013°13'816.8
2018-Apr-25 04:00N 37°07' E 013°05'18318.8
2018-Apr-24 18:17N 38°47' E 009°51'1018.7
2018-Apr-24 17:43N 38°52' E 009°39'418.6
2018-Apr-24 17:30N 38°55' E 009°35'918.6
2018-Apr-24 17:00N 38°60' E 009°25'1018.4
2018-Apr-24 16:29N 39°05' E 009°15'816.6
2018-Apr-24 16:00N 39°10' E 009°07'2 4.2
2018-Apr-24 15:30N 39°12' E 009°06'0 0.0
2018-Apr-24 14:59N 39°12' E 009°06'0 0.0
2018-Apr-24 14:29N 39°12' E 009°06'0 0.0
2018-Apr-24 13:59N 39°12' E 009°06'0 0.0
2018-Apr-24 13:29N 39°12' E 009°06'0 0.0
2018-Apr-24 12:58N 39°12' E 009°06'0 0.0
2018-Apr-24 12:25N 39°12' E 009°06'0 0.0
2018-Apr-24 11:58N 39°12' E 009°06'0 0.0
2018-Apr-24 11:28N 39°12' E 009°06'0 0.0
2018-Apr-24 10:58N 39°12' E 009°06'0 0.0
2018-Apr-24 10:30N 39°12' E 009°06'0 0.0
2018-Apr-24 10:00N 39°12' E 009°06'0 0.0
2018-Apr-24 09:30N 39°12' E 009°06'0 0.0
2018-Apr-24 09:00N 39°12' E 009°06'0 0.0
2018-Apr-24 08:29N 39°12' E 009°06'0 0.0
2018-Apr-24 07:59N 39°12' E 009°06'0 0.0
2018-Apr-24 07:29N 39°12' E 009°06'0 0.6
2018-Apr-24 07:00N 39°12' E 009°07'2 4.2
2018-Apr-24 06:30N 39°10' E 009°07'815.6
2018-Apr-24 06:00N 39°02' E 009°08'816.4
2018-Apr-24 05:30N 38°56' E 009°02'816.4
2018-Apr-24 05:00N 38°51' E 008°53'295 8.1
2018-Apr-22 16:23N 42°50' E 005°04'2316.5
2018-Apr-22 15:00N 43°12' E 005°11'815.4
2018-Apr-22 14:29N 43°19' E 005°16'3 0.3
2018-Apr-22 05:18N 43°21' E 005°20'1 2.5
2018-Apr-22 05:00N 43°21' E 005°19'611.6
2018-Apr-22 04:27N 43°15' E 005°16'7615.2
2018-Apr-21 23:25N 43°09' E 007°00'717.4
2018-Apr-21 23:01N 43°12' E 007°09'816.8
2018-Apr-21 22:31N 43°16' E 007°20'816.8
2018-Apr-21 22:00N 43°19' E 007°30'816.8
2018-Apr-21 21:31N 43°23' E 007°40'1616.3
2018-Apr-21 20:33N 43°30' E 007°60'116.7
2018-Apr-21 20:30N 43°30' E 008°01'1216.4
2018-Apr-21 19:45N 43°36' E 008°16'416.5
2018-Apr-21 19:29N 43°38' E 008°21'815.8
2018-Apr-21 19:00N 43°43' E 008°29'816.2
2018-Apr-21 18:30N 43°49' E 008°36'816.1
2018-Apr-21 18:00N 43°55' E 008°43'816.2
2018-Apr-21 17:30N 44°02' E 008°50'816.5
2018-Apr-21 17:00N 44°09' E 008°54'816.5
2018-Apr-21 16:30N 44°17' E 008°56'612.1
2018-Apr-21 16:00N 44°24' E 008°56'1 2.2
2018-Apr-21 15:26N 44°25' E 008°55'0 0.0
2018-Apr-21 14:58N 44°25' E 008°55'0 0.0
2018-Apr-21 14:28N 44°25' E 008°55'0 0.0
2018-Apr-21 13:58N 44°25' E 008°55'0 0.0
2018-Apr-21 13:28N 44°25' E 008°55'0 0.0
2018-Apr-21 12:58N 44°25' E 008°55'0 0.0
2018-Apr-21 12:27N 44°25' E 008°55'0 0.0
2018-Apr-21 11:57N 44°25' E 008°55'0 0.0
2018-Apr-21 11:30N 44°25' E 008°55'0 0.0
2018-Apr-21 11:00N 44°25' E 008°55'0 0.0
2018-Apr-21 10:26N 44°25' E 008°55'0 0.0
2018-Apr-21 09:53N 44°25' E 008°55'0 0.0
2018-Apr-21 09:26N 44°25' E 008°55'0 0.0
2018-Apr-21 08:59N 44°25' E 008°55'0 0.0
2018-Apr-21 08:29N 44°25' E 008°55'0 0.0
2018-Apr-21 07:55N 44°25' E 008°55'0 0.0
2018-Apr-21 07:25N 44°25' E 008°55'0 0.0
2018-Apr-21 06:55N 44°25' E 008°55'0 0.2
2018-Apr-21 06:29N 44°25' E 008°55'1 1.9
2018-Apr-21 06:00N 44°24' E 008°56'510.2
2018-Apr-21 05:30N 44°19' E 008°59'1019.5
2018-Apr-21 05:00N 44°10' E 009°04'1020.1
2018-Apr-21 04:30N 44°01' E 009°09'1020.0
2018-Apr-21 04:00N 43°52' E 009°14'1019.9
2018-Apr-21 03:30N 43°42' E 009°19'1019.7
2018-Apr-21 03:00N 43°33' E 009°24'1019.5
2018-Apr-21 02:30N 43°24' E 009°28'1019.1
2018-Apr-21 02:00N 43°15' E 009°33'1019.2
2018-Apr-21 01:30N 43°06' E 009°37'1019.6
2018-Apr-21 01:00N 42°56' E 009°40'1018.5
2018-Apr-21 00:29N 42°49' E 009°49'2419.3
2018-Apr-20 23:13N 42°35' E 010°17'519.4
2018-Apr-20 22:58N 42°32' E 010°22'1119.5
2018-Apr-20 22:26N 42°26' E 010°33'17619.0
2018-Apr-20 13:10N 40°43' E 013°44'318.9
2018-Apr-20 13:00N 40°41' E 013°47'1018.6
2018-Apr-20 12:30N 40°37' E 013°58'917.9
2018-Apr-20 12:00N 40°41' E 014°08'917.7
2018-Apr-20 11:30N 40°48' E 014°16'2 3.4
2018-Apr-20 10:51N 40°50' E 014°16'0 0.0
2018-Apr-20 10:14N 40°50' E 014°16'0 0.0
2018-Apr-20 09:56N 40°50' E 014°16'0 0.0
2018-Apr-20 09:05N 40°50' E 014°16'0 0.0
2018-Apr-20 08:56N 40°50' E 014°16'0 0.0
2018-Apr-20 08:20N 40°50' E 014°16'0 0.0
2018-Apr-20 07:43N 40°50' E 014°16'0 0.0
2018-Apr-20 07:25N 40°50' E 014°16'0 0.0
2018-Apr-20 06:55N 40°50' E 014°16'0 0.0
2018-Apr-20 06:25N 40°50' E 014°16'0 0.0
2018-Apr-20 05:49N 40°50' E 014°16'0 0.0
2018-Apr-20 05:27N 40°50' E 014°16'0 0.0
2018-Apr-20 05:00N 40°50' E 014°16'0 0.3
2018-Apr-20 04:30N 40°50' E 014°16'2 3.7
2018-Apr-20 04:00N 40°49' E 014°17'611.8
2018-Apr-20 03:30N 40°43' E 014°15'713.3
2018-Apr-20 03:00N 40°37' E 014°12'712.8
2018-Apr-20 02:27N 40°30' E 014°11'613.6
2018-Apr-20 02:00N 40°24' E 014°15'713.8
2018-Apr-20 01:29N 40°18' E 014°19'714.3
2018-Apr-20 01:00N 40°12' E 014°24'9814.8
2018-Apr-19 18:26N 38°46' E 015°23'817.2
2018-Apr-19 17:59N 38°39' E 015°28'817.2
2018-Apr-19 17:30N 38°32' E 015°33'916.6
2018-Apr-19 16:59N 38°24' E 015°38'815.9
2018-Apr-19 16:30N 38°17' E 015°42'814.2
2018-Apr-19 15:57N 38°12' E 015°34'1 1.5
2018-Apr-19 15:26N 38°12' E 015°33'0 0.0
2018-Apr-19 14:56N 38°12' E 015°33'0 0.0
2018-Apr-19 14:26N 38°12' E 015°33'0 0.0
2018-Apr-19 13:55N 38°12' E 015°33'0 0.0
2018-Apr-19 13:19N 38°12' E 015°33'0 0.0
2018-Apr-19 12:55N 38°12' E 015°33'0 0.0
2018-Apr-19 12:25N 38°12' E 015°33'0 0.0
2018-Apr-19 11:54N 38°12' E 015°33'0 0.0
2018-Apr-19 11:30N 38°12' E 015°33'0 0.0
2018-Apr-19 10:18N 38°12' E 015°33'0 0.0
2018-Apr-19 10:00N 38°12' E 015°33'0 0.0
2018-Apr-19 09:29N 38°12' E 015°33'0 0.0
2018-Apr-19 08:59N 38°12' E 015°33'0 0.0
2018-Apr-19 08:29N 38°12' E 015°33'0 0.0
2018-Apr-19 07:59N 38°12' E 015°33'0 0.0
2018-Apr-19 07:28N 38°12' E 015°33'0 0.0
2018-Apr-19 06:58N 38°12' E 015°33'0 0.0
2018-Apr-19 06:22N 38°12' E 015°33'0 0.2
2018-Apr-19 06:00N 38°12' E 015°34'3 5.1
2018-Apr-19 05:30N 38°11' E 015°37'714.5
2018-Apr-19 05:00N 38°03' E 015°36'1315.7
2018-Apr-19 04:12N 37°51' E 015°34'714.6
2018-Apr-19 03:42N 37°44' E 015°34'514.5
2018-Apr-19 03:23N 37°39' E 015°33'10612.6
2018-Apr-18 19:02N 36°02' E 014°40'0 4.6
2018-Apr-18 19:00N 36°02' E 014°40'713.2
2018-Apr-18 18:30N 35°57' E 014°35'4 0.4
2018-Apr-18 10:19N 35°54' E 014°32'2 6.7
2018-Apr-18 10:00N 35°56' E 014°32'816.1
2018-Apr-18 09:30N 36°03' E 014°26'817.2
2018-Apr-18 09:01N 36°09' E 014°19'714.3
2018-Apr-18 08:30N 36°14' E 014°13'815.1
2018-Apr-18 08:00N 36°19' E 014°06'816.2
2018-Apr-18 07:29N 36°25' E 013°58'816.3
2018-Apr-18 07:00N 36°31' E 013°52'816.3
2018-Apr-18 06:30N 36°36' E 013°44'816.2
2018-Apr-18 06:01N 36°42' E 013°37'816.0
2018-Apr-18 05:30N 36°48' E 013°30'23118.9
2018-Apr-17 17:16N 38°58' E 009°29'518.8
2018-Apr-17 17:00N 39°01' E 009°23'1018.7
2018-Apr-17 16:28N 39°06' E 009°13'715.1
2018-Apr-17 15:59N 39°12' E 009°06'1 2.2
2018-Apr-17 15:29N 39°13' E 009°07'0 0.0
2018-Apr-17 15:00N 39°13' E 009°07'0 0.0
2018-Apr-17 14:30N 39°13' E 009°07'0 0.0
2018-Apr-17 14:00N 39°13' E 009°07'0 0.0
2018-Apr-17 13:30N 39°13' E 009°07'0 0.0
2018-Apr-17 13:00N 39°13' E 009°07'0 0.0
2018-Apr-17 12:29N 39°13' E 009°07'0 0.0
2018-Apr-17 12:00N 39°13' E 009°07'0 0.0
2018-Apr-17 11:30N 39°13' E 009°07'0 0.0
2018-Apr-17 11:00N 39°13' E 009°07'0 0.0
2018-Apr-17 10:30N 39°13' E 009°07'0 0.0
2018-Apr-17 10:00N 39°13' E 009°07'0 0.0
2018-Apr-17 09:30N 39°13' E 009°07'0 0.0
2018-Apr-17 09:00N 39°13' E 009°07'0 0.0
2018-Apr-17 08:30N 39°13' E 009°07'0 0.0
2018-Apr-17 08:00N 39°13' E 009°07'0 0.0
2018-Apr-17 07:29N 39°13' E 009°07'0 0.4
2018-Apr-17 07:00N 39°12' E 009°07'5 9.1
2018-Apr-17 06:29N 39°08' E 009°08'715.5
2018-Apr-17 06:00N 39°00' E 009°06'713.2
2018-Apr-17 05:30N 38°55' E 009°02'713.4
2018-Apr-17 05:00N 38°51' E 008°55'  
Track history (hours):
 
Tides and Currents Weather Stations Pressure Air Temp Water Temp Dewpoint Dewpoint Depression Visibility Wind Speed Wind Dir Waves Ship Positions

MSC Opera

Operator: Mediterranean Shipping Company

Last reported at 2018-Apr-26 19:00 UTC. Time now 2018-Apr-26 19:10 UTC.
Position N 38°54' E 015°18'.

Length 275 m; draft 6.8 m.

Type: Ship. MMSI: 357627000.

Date/timePositionNaut miles runAvg speedWind from/ knotsBaromVisibWave heightAir tempDewpointWater temp
2018-Apr-26 19:00N 38°54' E 015°18'817.0
2018-Apr-26 18:30N 38°46' E 015°23'1017.4
2018-Apr-26 17:56N 38°37' E 015°29'717.2
2018-Apr-26 17:30N 38°31' E 015°33'817.0
2018-Apr-26 17:01N 38°23' E 015°38'913.9
2018-Apr-26 16:23N 38°15' E 015°39'513.1
2018-Apr-26 16:00N 38°12' E 015°34'1 0.9
2018-Apr-26 15:25N 38°12' E 015°33'0 0.0
2018-Apr-26 14:55N 38°12' E 015°33'0 0.0
2018-Apr-26 14:19N 38°12' E 015°33'0 0.0
2018-Apr-26 13:55N 38°12' E 015°33'0 0.0
2018-Apr-26 13:25N 38°12' E 015°33'0 0.0
2018-Apr-26 13:00N 38°12' E 015°33'0 0.0
2018-Apr-26 12:24N 38°12' E 015°33'0 0.0
2018-Apr-26 12:00N 38°12' E 015°33'0 0.0
2018-Apr-26 11:24N 38°12' E 015°33'0 0.0
2018-Apr-26 10:59N 38°12' E 015°33'0 0.0
2018-Apr-26 10:29N 38°12' E 015°33'0 0.0
2018-Apr-26 09:59N 38°12' E 015°33'0 0.0
2018-Apr-26 09:29N 38°12' E 015°33'0 0.0
2018-Apr-26 08:53N 38°12' E 015°33'0 0.0
2018-Apr-26 08:28N 38°12' E 015°33'0 0.0
2018-Apr-26 07:58N 38°12' E 015°33'0 0.0
2018-Apr-26 07:28N 38°12' E 015°33'0 0.0
2018-Apr-26 06:52N 38°12' E 015°33'0 0.0
2018-Apr-26 06:28N 38°12' E 015°33'0 0.0
2018-Apr-26 05:58N 38°12' E 015°33'1 2.2
2018-Apr-26 05:31N 38°12' E 015°34'5 9.1
2018-Apr-26 05:00N 38°08' E 015°36'610.4
2018-Apr-26 04:27N 38°02' E 015°35'512.0
2018-Apr-26 04:00N 37°57' E 015°35'612.1
2018-Apr-26 03:29N 37°51' E 015°34'812.3
2018-Apr-26 02:49N 37°43' E 015°33'412.3
2018-Apr-26 02:29N 37°38' E 015°33'6413.1
2018-Apr-25 21:37N 36°36' E 015°17'1013.7
2018-Apr-25 20:55N 36°28' E 015°09'613.6
2018-Apr-25 20:28N 36°24' E 015°05'913.8
2018-Apr-25 19:48N 36°17' E 014°57'413.9
2018-Apr-25 19:30N 36°13' E 014°54'713.8
2018-Apr-25 19:01N 36°09' E 014°48'813.8
2018-Apr-25 18:25N 36°03' E 014°41'613.9
2018-Apr-25 18:00N 35°58' E 014°36'7 1.0
2018-Apr-25 11:05N 35°53' E 014°31'0 0.6
2018-Apr-25 10:58N 35°53' E 014°31'2 4.6
2018-Apr-25 10:30N 35°55' E 014°32'5 9.2
2018-Apr-25 10:00N 35°59' E 014°31'612.7
2018-Apr-25 09:30N 36°04' E 014°25'815.2
2018-Apr-25 09:00N 36°09' E 014°18'816.4
2018-Apr-25 08:30N 36°15' E 014°11'816.1
2018-Apr-25 08:00N 36°21' E 014°04'816.4
2018-Apr-25 07:30N 36°26' E 013°57'816.6
2018-Apr-25 07:00N 36°32' E 013°50'816.4
2018-Apr-25 06:29N 36°38' E 013°42'816.1
2018-Apr-25 06:00N 36°44' E 013°35'816.4
2018-Apr-25 05:30N 36°49' E 013°28'816.3
2018-Apr-25 05:00N 36°55' E 013°21'816.4
2018-Apr-25 04:30N 37°01' E 013°13'816.8
2018-Apr-25 04:00N 37°07' E 013°05'18318.8
2018-Apr-24 18:17N 38°47' E 009°51'1018.7
2018-Apr-24 17:43N 38°52' E 009°39'418.6
2018-Apr-24 17:30N 38°55' E 009°35'918.6
2018-Apr-24 17:00N 38°60' E 009°25'1018.4
2018-Apr-24 16:29N 39°05' E 009°15'816.6
2018-Apr-24 16:00N 39°10' E 009°07'2 4.2
2018-Apr-24 15:30N 39°12' E 009°06'0 0.0
2018-Apr-24 14:59N 39°12' E 009°06'0 0.0
2018-Apr-24 14:29N 39°12' E 009°06'0 0.0
2018-Apr-24 13:59N 39°12' E 009°06'0 0.0
2018-Apr-24 13:29N 39°12' E 009°06'0 0.0
2018-Apr-24 12:58N 39°12' E 009°06'0 0.0
2018-Apr-24 12:25N 39°12' E 009°06'0 0.0
2018-Apr-24 11:58N 39°12' E 009°06'0 0.0
2018-Apr-24 11:28N 39°12' E 009°06'0 0.0
2018-Apr-24 10:58N 39°12' E 009°06'0 0.0
2018-Apr-24 10:30N 39°12' E 009°06'0 0.0
2018-Apr-24 10:00N 39°12' E 009°06'0 0.0
2018-Apr-24 09:30N 39°12' E 009°06'0 0.0
2018-Apr-24 09:00N 39°12' E 009°06'0 0.0
2018-Apr-24 08:29N 39°12' E 009°06'0 0.0
2018-Apr-24 07:59N 39°12' E 009°06'0 0.0
2018-Apr-24 07:29N 39°12' E 009°06'0 0.6
2018-Apr-24 07:00N 39°12' E 009°07'2 4.2
2018-Apr-24 06:30N 39°10' E 009°07'815.6
2018-Apr-24 06:00N 39°02' E 009°08'816.4
2018-Apr-24 05:30N 38°56' E 009°02'816.4
2018-Apr-24 05:00N 38°51' E 008°53'295 8.1
2018-Apr-22 16:23N 42°50' E 005°04'2316.5
2018-Apr-22 15:00N 43°12' E 005°11'815.4
2018-Apr-22 14:29N 43°19' E 005°16'3 0.3
2018-Apr-22 05:18N 43°21' E 005°20'1 2.5
2018-Apr-22 05:00N 43°21' E 005°19'611.6
2018-Apr-22 04:27N 43°15' E 005°16'7615.2
2018-Apr-21 23:25N 43°09' E 007°00'717.4
2018-Apr-21 23:01N 43°12' E 007°09'816.8
2018-Apr-21 22:31N 43°16' E 007°20'816.8
2018-Apr-21 22:00N 43°19' E 007°30'816.8
2018-Apr-21 21:31N 43°23' E 007°40'1616.3
2018-Apr-21 20:33N 43°30' E 007°60'116.7
2018-Apr-21 20:30N 43°30' E 008°01'1216.4
2018-Apr-21 19:45N 43°36' E 008°16'416.5
2018-Apr-21 19:29N 43°38' E 008°21'815.8
2018-Apr-21 19:00N 43°43' E 008°29'816.2
2018-Apr-21 18:30N 43°49' E 008°36'816.1
2018-Apr-21 18:00N 43°55' E 008°43'816.2
2018-Apr-21 17:30N 44°02' E 008°50'816.5
2018-Apr-21 17:00N 44°09' E 008°54'816.5
2018-Apr-21 16:30N 44°17' E 008°56'612.1
2018-Apr-21 16:00N 44°24' E 008°56'1 2.2
2018-Apr-21 15:26N 44°25' E 008°55'0 0.0
2018-Apr-21 14:58N 44°25' E 008°55'0 0.0
2018-Apr-21 14:28N 44°25' E 008°55'0 0.0
2018-Apr-21 13:58N 44°25' E 008°55'0 0.0
2018-Apr-21 13:28N 44°25' E 008°55'0 0.0
2018-Apr-21 12:58N 44°25' E 008°55'0 0.0
2018-Apr-21 12:27N 44°25' E 008°55'0 0.0
2018-Apr-21 11:57N 44°25' E 008°55'0 0.0
2018-Apr-21 11:30N 44°25' E 008°55'0 0.0
2018-Apr-21 11:00N 44°25' E 008°55'0 0.0
2018-Apr-21 10:26N 44°25' E 008°55'0 0.0
2018-Apr-21 09:53N 44°25' E 008°55'0 0.0
2018-Apr-21 09:26N 44°25' E 008°55'0 0.0
2018-Apr-21 08:59N 44°25' E 008°55'0 0.0
2018-Apr-21 08:29N 44°25' E 008°55'0 0.0
2018-Apr-21 07:55N 44°25' E 008°55'0 0.0
2018-Apr-21 07:25N 44°25' E 008°55'0 0.0
2018-Apr-21 06:55N 44°25' E 008°55'0 0.2
2018-Apr-21 06:29N 44°25' E 008°55'1 1.9
2018-Apr-21 06:00N 44°24' E 008°56'510.2
2018-Apr-21 05:30N 44°19' E 008°59'1019.5
2018-Apr-21 05:00N 44°10' E 009°04'1020.1
2018-Apr-21 04:30N 44°01' E 009°09'1020.0
2018-Apr-21 04:00N 43°52' E 009°14'1019.9
2018-Apr-21 03:30N 43°42' E 009°19'1019.7
2018-Apr-21 03:00N 43°33' E 009°24'1019.5
2018-Apr-21 02:30N 43°24' E 009°28'1019.1
2018-Apr-21 02:00N 43°15' E 009°33'1019.2
2018-Apr-21 01:30N 43°06' E 009°37'1019.6
2018-Apr-21 01:00N 42°56' E 009°40'1018.5
2018-Apr-21 00:29N 42°49' E 009°49'2419.3
2018-Apr-20 23:13N 42°35' E 010°17'519.4
2018-Apr-20 22:58N 42°32' E 010°22'1119.5
2018-Apr-20 22:26N 42°26' E 010°33'17619.0
2018-Apr-20 13:10N 40°43' E 013°44'318.9
2018-Apr-20 13:00N 40°41' E 013°47'1018.6
2018-Apr-20 12:30N 40°37' E 013°58'917.9
2018-Apr-20 12:00N 40°41' E 014°08'917.7
2018-Apr-20 11:30N 40°48' E 014°16'2 3.4
2018-Apr-20 10:51N 40°50' E 014°16'0 0.0
2018-Apr-20 10:14N 40°50' E 014°16'0 0.0
2018-Apr-20 09:56N 40°50' E 014°16'0 0.0
2018-Apr-20 09:05N 40°50' E 014°16'0 0.0
2018-Apr-20 08:56N 40°50' E 014°16'0 0.0
2018-Apr-20 08:20N 40°50' E 014°16'0 0.0
2018-Apr-20 07:43N 40°50' E 014°16'0 0.0
2018-Apr-20 07:25N 40°50' E 014°16'0 0.0
2018-Apr-20 06:55N 40°50' E 014°16'0 0.0
2018-Apr-20 06:25N 40°50' E 014°16'0 0.0
2018-Apr-20 05:49N 40°50' E 014°16'0 0.0
2018-Apr-20 05:27N 40°50' E 014°16'0 0.0
2018-Apr-20 05:00N 40°50' E 014°16'0 0.3
2018-Apr-20 04:30N 40°50' E 014°16'2 3.7
2018-Apr-20 04:00N 40°49' E 014°17'611.8
2018-Apr-20 03:30N 40°43' E 014°15'713.3
2018-Apr-20 03:00N 40°37' E 014°12'712.8
2018-Apr-20 02:27N 40°30' E 014°11'613.6
2018-Apr-20 02:00N 40°24' E 014°15'713.8
2018-Apr-20 01:29N 40°18' E 014°19'714.3
2018-Apr-20 01:00N 40°12' E 014°24'9814.8
2018-Apr-19 18:26N 38°46' E 015°23'817.2
2018-Apr-19 17:59N 38°39' E 015°28'817.2
2018-Apr-19 17:30N 38°32' E 015°33'916.6
2018-Apr-19 16:59N 38°24' E 015°38'815.9
2018-Apr-19 16:30N 38°17' E 015°42'814.2
2018-Apr-19 15:57N 38°12' E 015°34'1 1.5
2018-Apr-19 15:26N 38°12' E 015°33'0 0.0
2018-Apr-19 14:56N 38°12' E 015°33'0 0.0
2018-Apr-19 14:26N 38°12' E 015°33'0 0.0
2018-Apr-19 13:55N 38°12' E 015°33'0 0.0
2018-Apr-19 13:19N 38°12' E 015°33'0 0.0
2018-Apr-19 12:55N 38°12' E 015°33'0 0.0
2018-Apr-19 12:25N 38°12' E 015°33'0 0.0
2018-Apr-19 11:54N 38°12' E 015°33'0 0.0
2018-Apr-19 11:30N 38°12' E 015°33'0 0.0
2018-Apr-19 10:18N 38°12' E 015°33'0 0.0
2018-Apr-19 10:00N 38°12' E 015°33'0 0.0
2018-Apr-19 09:29N 38°12' E 015°33'0 0.0
2018-Apr-19 08:59N 38°12' E 015°33'0 0.0
2018-Apr-19 08:29N 38°12' E 015°33'0 0.0
2018-Apr-19 07:59N 38°12' E 015°33'0 0.0
2018-Apr-19 07:28N 38°12' E 015°33'0 0.0
2018-Apr-19 06:58N 38°12' E 015°33'0 0.0
2018-Apr-19 06:22N 38°12' E 015°33'0 0.2
2018-Apr-19 06:00N 38°12' E 015°34'3 5.1
2018-Apr-19 05:30N 38°11' E 015°37'714.5
2018-Apr-19 05:00N 38°03' E 015°36'1315.7
2018-Apr-19 04:12N 37°51' E 015°34'714.6
2018-Apr-19 03:42N 37°44' E 015°34'514.5
2018-Apr-19 03:23N 37°39' E 015°33'10612.6
2018-Apr-18 19:02N 36°02' E 014°40'0 4.6
2018-Apr-18 19:00N 36°02' E 014°40'713.2
2018-Apr-18 18:30N 35°57' E 014°35'4 0.4
2018-Apr-18 10:19N 35°54' E 014°32'2 6.7
2018-Apr-18 10:00N 35°56' E 014°32'816.1
2018-Apr-18 09:30N 36°03' E 014°26'817.2
2018-Apr-18 09:01N 36°09' E 014°19'714.3
2018-Apr-18 08:30N 36°14' E 014°13'815.1
2018-Apr-18 08:00N 36°19' E 014°06'816.2
2018-Apr-18 07:29N 36°25' E 013°58'816.3
2018-Apr-18 07:00N 36°31' E 013°52'816.3
2018-Apr-18 06:30N 36°36' E 013°44'816.2
2018-Apr-18 06:01N 36°42' E 013°37'816.0
2018-Apr-18 05:30N 36°48' E 013°30'23118.9
2018-Apr-17 17:16N 38°58' E 009°29'518.8
2018-Apr-17 17:00N 39°01' E 009°23'1018.7
2018-Apr-17 16:28N 39°06' E 009°13'715.1
2018-Apr-17 15:59N 39°12' E 009°06'1 2.2
2018-Apr-17 15:29N 39°13' E 009°07'0 0.0
2018-Apr-17 15:00N 39°13' E 009°07'0 0.0
2018-Apr-17 14:30N 39°13' E 009°07'0 0.0
2018-Apr-17 14:00N 39°13' E 009°07'0 0.0
2018-Apr-17 13:30N 39°13' E 009°07'0 0.0
2018-Apr-17 13:00N 39°13' E 009°07'0 0.0
2018-Apr-17 12:29N 39°13' E 009°07'0 0.0
2018-Apr-17 12:00N 39°13' E 009°07'0 0.0
2018-Apr-17 11:30N 39°13' E 009°07'0 0.0
2018-Apr-17 11:00N 39°13' E 009°07'0 0.0
2018-Apr-17 10:30N 39°13' E 009°07'0 0.0
2018-Apr-17 10:00N 39°13' E 009°07'0 0.0
2018-Apr-17 09:30N 39°13' E 009°07'0 0.0
2018-Apr-17 09:00N 39°13' E 009°07'0 0.0
2018-Apr-17 08:30N 39°13' E 009°07'0 0.0
2018-Apr-17 08:00N 39°13' E 009°07'0 0.0
2018-Apr-17 07:29N 39°13' E 009°07'0 0.4
2018-Apr-17 07:00N 39°12' E 009°07'5 9.1
2018-Apr-17 06:29N 39°08' E 009°08'715.5
2018-Apr-17 06:00N 39°00' E 009°06'713.2
2018-Apr-17 05:30N 38°55' E 009°02'713.4
2018-Apr-17 05:00N 38°51' E 008°55'  

Dump ship's entire track history